ADDS METAR Data INFO
IDs: Format: Raw Decoded Include TAF

Data at: 1015 UTC 14 Dec 2017

KLAL 140935Z AUTO 00000KT 10SM CLR 06/05 A3003 RMK AO2
KLAL 140915Z AUTO 00000KT 10SM CLR 06/05 A3003 RMK AO2
KLAL 140855Z AUTO 00000KT 10SM CLR 06/04 A3003 RMK AO2
KLAL 140835Z AUTO 00000KT 10SM CLR 05/03 A3003 RMK AO2
KLAL 140815Z AUTO 00000KT 10SM CLR 05/03 A3003 RMK AO2
KLAL 140755Z AUTO 00000KT 10SM CLR 05/03 A3004 RMK AO2
KLAL 140735Z AUTO 00000KT 10SM CLR 05/03 A3004 RMK AO2
KLAL 140715Z AUTO 00000KT 10SM CLR 04/02 A3004 RMK AO2
KLAL 140655Z AUTO 00000KT 10SM CLR 05/03 A3005 RMK AO2
KLAL 140635Z AUTO 00000KT 10SM CLR 04/02 A3005 RMK AO2
KLAL 140615Z AUTO 00000KT 10SM CLR 04/02 A3005 RMK AO2
KLAL 140555Z AUTO 00000KT 10SM CLR 03/01 A3005 RMK AO2
KLAL 140535Z AUTO 00000KT 10SM CLR 05/02 A3005 RMK AO2
KLAL 140255Z AUTO 00000KT 10SM CLR 05/01 A3009 RMK AO2
KLAL 140250Z 00000KT 10SM SKC 06/01 A3009
KLAL 140235Z AUTO 00000KT 10SM CLR 06/02 A3009 RMK AO2
KLAL 140215Z AUTO 00000KT 10SM CLR 06/01 A3009 RMK AO2
KLAL 140154Z 00000KT 10SM SKC 06/01 A3009
KLAL 140050Z 00000KT 10SM SKC 08/M01 A3009
KLAL 132345Z 31005KT 10SM SKC 11/M02 A3008
KLAL 132253Z 00000KT 10SM SKC 13/M03 A3007
KLAL 132150Z 30008KT 10SM SKC 16/M06 A3006
KLAL 132050Z 27008KT 10SM SKC 17/M04 A3005
KLAL 131950Z 28008KT 10SM SKC 17/M02 A3006
KLAL 131850Z 21008KT 10SM SKC 17/M02 A3006
KLAL 131750Z 28006KT 10SM SKC 16/M02 A3009
KLAL 131650Z 33006KT 10SM SKC 14/M02 A3013
KLAL 131555Z 33008KT 10SM SKC 11/M01 A3016
KLAL 131455Z 36008KT 10SM SKC 11/00 A3016
KLAL 131345Z 36008KT 10SM SKC 08/01 A3015
KLAL 131250Z 00000KT 10SM SKC 06/02 A3013
KLAL 131150Z 34004KT 10SM SKC 06/01 A3010
KLAL 131045Z 34004KT 10SM SKC 06/01 A3008
KLAL 130935Z AUTO 35004KT 10SM CLR 07/01 A3006 RMK AO2
KLAL 130855Z AUTO 35004KT 10SM CLR 07/01 A3005 RMK AO2
KLAL 130835Z AUTO 36006KT 10SM CLR 07/01 A3004 RMK AO2
KLAL 130815Z AUTO 35005KT 10SM CLR 07/01 A3004 RMK AO2
KLAL 130755Z AUTO 36005KT 10SM CLR 07/01 A3004 RMK AO2
KLAL 130735Z AUTO 36004KT 10SM CLR 08/01 A3004 RMK AO2
KLAL 130715Z AUTO 35004KT 10SM CLR 08/02 A3003 RMK AO2
KLAL 130655Z AUTO 35004KT 10SM CLR 09/02 A3004 RMK AO2
KLAL 130635Z AUTO 34005KT 10SM CLR 09/02 A3003 RMK AO2
KLAL 130615Z AUTO 34006KT 10SM CLR 10/02 A3003 RMK AO2
KLAL 130555Z AUTO 34006KT 10SM CLR 09/03 A3002 RMK AO2
KLAL 130535Z AUTO 34007KT 10SM CLR 10/04 A3003 RMK AO2
KLAL 130515Z AUTO 33007KT 10SM CLR 10/04 A3003 RMK AO2
KLAL 130455Z AUTO 33007KT 10SM CLR 11/05 A3003 RMK AO2
KLAL 130435Z AUTO 33007KT 10SM CLR 11/05 A3003 RMK AO2
KLAL 130415Z AUTO 34006KT 10SM CLR 11/06 A3002 RMK AO2
KLAL 130355Z AUTO 34005KT 10SM CLR 11/07 A3002 RMK AO2
KLAL 130335Z AUTO 34005KT 10SM CLR 11/07 A3002 RMK AO2
KLAL 130245Z 33004KT 10SM SKC 13/07 A3000
KLAL 130235Z AUTO 33003KT 10SM CLR 12/07 A3000 RMK AO2
KLAL 130215Z AUTO 30006KT 10SM CLR 12/07 A3000 RMK AO2
KLAL 130145Z 30007KT 10SM SKC 14/08 A3000
KLAL 130045Z 30010KT 10SM SKC 16/11 A2997
KLAL 122345Z 30010KT 10SM SCT026 BKN033 17/13 A2995
KLAL 122245Z 28008KT 10SM FEW060 19/09 A2992